createdAt,value
2018-04-08T00:01:20.946Z,38.00
2018-04-08T00:03:49.961Z,38.40
2018-04-08T00:06:18.243Z,38.40
2018-04-08T00:08:46.637Z,39.60
2018-04-08T00:11:14.880Z,41.30
2018-04-08T00:13:43.289Z,40.80
2018-04-08T00:16:11.549Z,41.00
2018-04-08T00:18:39.801Z,40.90
2018-04-08T00:21:08.106Z,40.10
2018-04-08T00:23:36.362Z,41.80
2018-04-08T00:26:04.605Z,41.30
2018-04-08T00:28:32.870Z,41.20
2018-04-08T00:31:01.114Z,40.10
2018-04-08T00:33:29.357Z,39.30
2018-04-08T00:35:58.701Z,40.20
2018-04-08T00:38:27.929Z,40.20
2018-04-08T00:40:56.176Z,41.20
2018-04-08T00:43:24.441Z,40.70
2018-04-08T00:45:52.794Z,41.90
2018-04-08T00:48:21.801Z,41.40
2018-04-08T00:50:50.219Z,41.30
2018-04-08T00:53:18.541Z,42.00
2018-04-08T00:55:47.585Z,41.20
2018-04-08T00:58:15.962Z,41.10
2018-04-08T01:00:44.212Z,43.00
2018-04-08T01:03:12.459Z,41.70
2018-04-08T01:05:40.721Z,41.30
2018-04-08T01:08:08.964Z,40.80
2018-04-08T01:10:37.504Z,40.50
2018-04-08T01:13:06.586Z,43.30
2018-04-08T01:15:34.902Z,43.30
2018-04-08T01:18:03.224Z,40.80
2018-04-08T01:20:31.701Z,40.80
2018-04-08T01:22:59.948Z,40.80
2018-04-08T01:25:28.190Z,40.80
2018-04-08T01:27:56.491Z,41.60
2018-04-08T01:30:24.733Z,40.50
2018-04-08T01:32:52.971Z,40.90
2018-04-08T01:35:21.241Z,41.20
2018-04-08T01:37:49.485Z,42.10
2018-04-08T01:40:17.729Z,41.20
2018-04-08T01:42:46.053Z,42.70
2018-04-08T01:45:14.304Z,42.70
2018-04-08T01:47:42.545Z,43.20
2018-04-08T01:50:10.881Z,44.30
2018-04-08T01:52:39.093Z,42.70
2018-04-08T01:55:07.333Z,42.50
2018-04-08T01:57:35.607Z,42.20
2018-04-08T02:00:03.850Z,43.10
2018-04-08T02:02:32.865Z,42.00
2018-04-08T02:05:01.281Z,42.00
2018-04-08T02:07:29.540Z,43.60
2018-04-08T02:09:57.777Z,44.50
2018-04-08T02:12:26.393Z,45.80
2018-04-08T02:14:54.650Z,43.80
2018-04-08T02:17:23.132Z,43.80
2018-04-08T02:19:52.169Z,43.20
2018-04-08T02:22:20.505Z,43.20
2018-04-08T02:24:49.518Z,44.20
2018-04-08T02:27:18.229Z,44.00
2018-04-08T02:29:46.477Z,44.00
2018-04-08T02:32:14.724Z,43.40
2018-04-08T02:34:43.012Z,43.00
2018-04-08T02:37:12.021Z,47.00
2018-04-08T02:39:40.276Z,47.00
2018-04-08T02:42:08.550Z,45.00
2018-04-08T02:44:36.798Z,43.50
2018-04-08T02:47:05.078Z,43.40
2018-04-08T02:49:33.410Z,44.40
2018-04-08T02:52:01.669Z,45.10
2018-04-08T02:54:30.679Z,45.70
2018-04-08T02:56:58.961Z,45.60
2018-04-08T02:59:27.215Z,45.60
2018-04-08T03:01:55.459Z,45.30
2018-04-08T03:04:23.734Z,44.50
2018-04-08T03:06:51.990Z,44.00
2018-04-08T03:09:20.246Z,43.60
2018-04-08T03:11:48.561Z,44.60
2018-04-08T03:14:17.082Z,44.00
2018-04-08T03:16:46.102Z,47.10
2018-04-08T03:19:14.469Z,47.10
2018-04-08T03:21:42.720Z,47.80
2018-04-08T03:24:10.973Z,48.30
2018-04-08T03:26:39.248Z,46.70
2018-04-08T03:29:07.536Z,47.50
2018-04-08T03:31:35.735Z,45.80
2018-04-08T03:34:05.077Z,45.00
2018-04-08T03:36:33.409Z,45.00
2018-04-08T03:39:02.421Z,45.80
2018-04-08T03:41:30.814Z,45.70
2018-04-08T03:43:59.053Z,46.20
2018-04-08T03:46:27.297Z,45.30
2018-04-08T03:48:55.609Z,46.10
2018-04-08T03:51:24.620Z,45.30
2018-04-08T03:53:53.629Z,46.20
2018-04-08T03:56:22.076Z,46.20
2018-04-08T03:58:50.320Z,45.90
2018-04-08T04:01:18.564Z,45.60
2018-04-08T04:03:46.837Z,45.70
2018-04-08T04:06:15.085Z,45.50
2018-04-08T04:08:44.106Z,47.10
2018-04-08T04:11:12.367Z,47.10
2018-04-08T04:13:40.614Z,47.20
2018-04-08T04:16:09.017Z,47.40
2018-04-08T04:18:49.778Z,48.90
2018-04-08T04:21:29.797Z,48.80
2018-04-08T04:24:09.809Z,47.60
2018-04-08T04:26:38.052Z,47.30
2018-04-08T04:29:06.288Z,49.20
2018-04-08T04:31:34.584Z,48.70
2018-04-08T04:34:02.814Z,48.10
2018-04-08T04:36:31.056Z,48.00
2018-04-08T04:38:59.544Z,48.00
2018-04-08T04:41:27.789Z,50.20
2018-04-08T04:43:56.033Z,50.40
2018-04-08T04:46:24.301Z,50.80
2018-04-08T04:48:52.541Z,49.50
2018-04-08T04:51:20.816Z,49.60
2018-04-08T04:53:49.469Z,48.20
2018-04-08T04:56:17.756Z,49.60
2018-04-08T04:58:46.001Z,49.60
2018-04-08T05:01:14.325Z,50.40
2018-04-08T05:03:42.614Z,50.20
2018-04-08T05:06:11.009Z,50.10
2018-04-08T05:08:40.033Z,48.60
2018-04-08T05:11:08.386Z,48.70
2018-04-08T05:13:37.397Z,51.80
2018-04-08T05:16:05.664Z,51.70
2018-04-08T05:18:34.174Z,50.20
2018-04-08T05:21:02.421Z,51.50
2018-04-08T05:23:30.937Z,51.70
2018-04-08T05:25:59.180Z,51.70
2018-04-08T05:28:27.413Z,51.80
2018-04-08T05:30:55.676Z,52.50
2018-04-08T05:33:24.069Z,51.30
2018-04-08T05:35:52.309Z,52.30
2018-04-08T05:38:20.584Z,51.00
2018-04-08T05:40:48.834Z,50.10
2018-04-08T05:43:17.078Z,49.90
2018-04-08T05:45:45.485Z,49.00
2018-04-08T05:48:13.745Z,48.80
2018-04-08T05:50:41.985Z,49.20
2018-04-08T05:53:10.256Z,48.80
2018-04-08T05:55:38.497Z,49.70
2018-04-08T05:58:06.754Z,50.20
2018-04-08T06:00:35.001Z,51.30
2018-04-08T06:03:03.245Z,50.40
2018-04-08T06:05:31.490Z,51.80
2018-04-08T06:08:00.581Z,49.40
2018-04-08T06:10:28.826Z,49.40
2018-04-08T06:12:57.209Z,49.50
2018-04-08T06:15:25.481Z,49.10
2018-04-08T06:17:53.721Z,49.60
2018-04-08T06:20:22.386Z,50.50
2018-04-08T06:22:51.421Z,51.00
2018-04-08T06:25:19.670Z,50.90
2018-04-08T06:27:47.909Z,51.60
2018-04-08T06:30:17.190Z,52.50
2018-04-08T06:32:45.413Z,51.50
2018-04-08T06:35:13.661Z,50.90
2018-04-08T06:37:41.929Z,50.90
2018-04-08T06:40:10.181Z,51.00
2018-04-08T06:42:38.432Z,51.70
2018-04-08T06:45:06.705Z,50.30
2018-04-08T06:47:34.950Z,50.10
2018-04-08T06:50:03.190Z,50.60
2018-04-08T06:52:31.735Z,52.70
2018-04-08T06:54:59.977Z,52.70
2018-04-08T06:57:28.263Z,52.20
2018-04-08T06:59:56.615Z,53.10
2018-04-08T07:02:24.838Z,52.50
2018-04-08T07:04:53.861Z,52.40
2018-04-08T07:07:22.129Z,52.70
2018-04-08T07:09:50.376Z,54.20
2018-04-08T07:12:18.625Z,53.90
2018-04-08T07:14:47.155Z,53.60
2018-04-08T07:17:15.417Z,54.30
2018-04-08T07:19:44.433Z,51.80
2018-04-08T07:22:13.018Z,51.70
2018-04-08T07:24:41.317Z,53.10
2018-04-08T07:27:09.526Z,54.00
2018-04-08T07:29:37.801Z,55.80
2018-04-08T07:32:06.061Z,52.70
2018-04-08T07:34:34.318Z,52.40
2018-04-08T07:37:03.109Z,52.80
2018-04-08T07:39:31.442Z,52.60
2018-04-08T07:41:59.641Z,53.50
2018-04-08T07:44:27.929Z,52.50
2018-04-08T07:46:56.173Z,52.40
2018-04-08T07:49:24.432Z,52.50
2018-04-08T07:51:52.718Z,52.10
2018-04-08T07:54:21.736Z,51.20
2018-04-08T07:56:49.985Z,51.10
2018-04-08T07:59:18.513Z,52.30
2018-04-08T08:01:47.185Z,52.10
2018-04-08T08:04:17.381Z,51.00
2018-04-08T08:06:46.439Z,51.10
2018-04-08T08:09:14.737Z,51.10
2018-04-08T08:11:43.110Z,50.80
2018-04-08T08:14:11.513Z,52.10
2018-04-08T08:16:40.569Z,51.00
2018-04-08T08:19:09.167Z,50.90
2018-04-08T08:21:38.321Z,51.10
2018-04-08T08:24:06.572Z,50.40
2018-04-08T08:26:35.586Z,50.80
2018-04-08T08:29:03.965Z,50.70
2018-04-08T08:31:32.221Z,50.70
2018-04-08T08:34:00.671Z,50.40
2018-04-08T08:36:29.429Z,51.20
2018-04-08T08:38:58.174Z,51.80
2018-04-08T08:41:27.186Z,50.70
2018-04-08T08:43:55.797Z,50.60
2018-04-08T08:46:24.051Z,50.30
2018-04-08T08:48:52.301Z,49.60
2018-04-08T08:51:20.578Z,49.50
2018-04-08T08:53:49.617Z,50.00
2018-04-08T08:56:17.845Z,49.90
2018-04-08T08:58:46.330Z,49.70
2018-04-08T09:01:15.346Z,49.80
2018-04-08T09:03:43.681Z,49.80
2018-04-08T09:06:12.454Z,49.70
2018-04-08T09:08:41.320Z,49.00
2018-04-08T09:11:09.558Z,49.00
2018-04-08T09:13:38.141Z,49.60
2018-04-08T09:16:07.156Z,49.50
2018-04-08T09:18:35.413Z,49.50
2018-04-08T09:24:07.711Z,49.40
2018-04-08T09:26:35.977Z,49.00
2018-04-08T09:29:05.036Z,48.90
2018-04-08T09:31:33.253Z,48.90
2018-04-08T09:34:01.535Z,48.80
2018-04-08T09:36:29.790Z,48.90
2018-04-08T09:38:58.030Z,48.80
2018-04-08T09:41:26.612Z,48.80
2018-04-08T09:43:54.917Z,48.50
2018-04-08T09:46:23.165Z,48.40
2018-04-08T09:48:51.444Z,48.60
2018-04-08T09:51:19.707Z,48.00
2018-04-08T09:53:47.945Z,48.00
2018-04-08T09:56:16.217Z,47.80
2018-04-08T09:58:45.243Z,47.60
2018-04-08T10:01:19.484Z,47.50
2018-04-08T10:03:49.838Z,47.80
2018-04-08T10:06:18.099Z,47.70
2018-04-08T10:08:46.422Z,47.30
2018-04-08T10:11:15.444Z,46.80
2018-04-08T10:13:43.709Z,46.80
2018-04-08T10:16:11.985Z,46.80
2018-04-08T10:18:40.245Z,46.50
2018-04-08T10:21:09.268Z,45.80
2018-04-08T10:23:37.965Z,45.80
2018-04-08T10:26:06.273Z,45.70
2018-04-08T10:28:34.528Z,45.30
2018-04-08T10:31:02.797Z,45.10
2018-04-08T10:33:31.050Z,45.70
2018-04-08T10:35:59.297Z,45.50
2018-04-08T10:38:27.585Z,46.50
2018-04-08T10:40:56.602Z,41.10
2018-04-08T10:43:24.854Z,41.00
2018-04-08T10:45:53.381Z,42.70
2018-04-08T10:48:21.774Z,43.10
2018-04-08T10:50:50.009Z,38.70
2018-04-08T10:53:18.285Z,36.80
2018-04-08T10:55:46.538Z,39.80
2018-04-08T10:58:15.566Z,36.00
2018-04-08T11:00:43.913Z,35.80
2018-04-08T11:03:12.947Z,33.10
2018-04-08T11:05:41.313Z,33.00
2018-04-08T11:08:10.025Z,33.60
2018-04-08T11:10:38.633Z,33.80
2018-04-08T11:13:06.894Z,31.60
2018-04-08T11:15:35.234Z,32.50
2018-04-08T11:18:03.494Z,32.40
2018-04-08T11:20:32.513Z,31.80
2018-04-08T11:23:00.781Z,31.70
2018-04-08T11:25:29.469Z,31.30
2018-04-08T11:27:57.754Z,29.90
2018-04-08T11:30:26.117Z,30.30
2018-04-08T11:32:54.385Z,30.10
2018-04-08T11:35:23.401Z,29.00
2018-04-08T11:37:51.693Z,29.00
2018-04-08T11:40:19.942Z,29.30
2018-04-08T11:42:48.201Z,27.90
2018-04-08T11:45:17.245Z,28.10
2018-04-08T11:47:45.500Z,28.00
2018-04-08T11:50:13.774Z,28.40
2018-04-08T11:52:42.158Z,28.40
2018-04-08T11:55:10.414Z,28.50
2018-04-08T11:57:39.441Z,26.90
2018-04-08T12:00:08.721Z,26.80
2018-04-08T12:02:37.057Z,26.70
2018-04-08T12:05:05.309Z,26.90
2018-04-08T12:07:33.582Z,26.60
2018-04-08T12:10:01.898Z,25.90
2018-04-08T12:12:30.149Z,27.80
2018-04-08T12:14:58.525Z,25.50
2018-04-08T12:17:26.745Z,25.90
2018-04-08T12:19:56.585Z,26.40
2018-04-08T12:22:24.857Z,26.40
2018-04-08T12:24:53.120Z,27.20
2018-04-08T12:27:21.467Z,25.60
2018-04-08T12:29:49.720Z,24.30
2018-04-08T12:32:17.965Z,24.60
2018-04-08T12:34:46.325Z,25.60
2018-04-08T12:37:15.420Z,23.60
2018-04-08T12:39:43.670Z,23.50
2018-04-08T12:42:11.913Z,25.10
2018-04-08T12:44:40.190Z,24.70
2018-04-08T12:47:08.444Z,24.60
2018-04-08T12:49:36.701Z,24.50
2018-04-08T12:52:05.035Z,23.90
2018-04-08T12:54:33.262Z,23.90
2018-04-08T12:57:02.653Z,24.60
2018-04-08T12:59:31.740Z,23.70
2018-04-08T13:01:59.985Z,23.70
2018-04-08T13:04:28.237Z,22.20
2018-04-08T13:06:56.509Z,22.20
2018-04-08T13:09:24.758Z,22.90
2018-04-08T13:11:52.997Z,22.80
2018-04-08T13:14:21.267Z,22.50
2018-04-08T13:16:49.517Z,22.00
2018-04-08T13:19:18.037Z,21.80
2018-04-08T13:21:46.496Z,21.00
2018-04-08T13:24:14.752Z,23.00
2018-04-08T13:26:43.206Z,21.60
2018-04-08T13:29:12.267Z,22.60
2018-04-08T13:31:40.484Z,22.40
2018-04-08T13:34:08.741Z,22.00
2018-04-08T13:36:37.781Z,21.80
2018-04-08T13:39:06.057Z,21.80
2018-04-08T13:41:34.292Z,22.40
2018-04-08T13:44:02.834Z,21.60
2018-04-08T13:46:31.121Z,21.00
2018-04-08T13:48:59.364Z,21.30
2018-04-08T13:51:27.629Z,21.60
2018-04-08T13:53:55.879Z,20.40
2018-04-08T13:56:24.125Z,20.90
2018-04-08T13:58:52.392Z,21.20
2018-04-08T14:01:20.634Z,20.60
2018-04-08T14:03:48.877Z,20.40
2018-04-08T14:06:17.193Z,20.10
2018-04-08T14:08:45.441Z,20.90
2018-04-08T14:11:13.693Z,20.80
2018-04-08T14:13:41.965Z,20.70
2018-04-08T14:16:10.218Z,19.80
2018-04-08T14:18:38.441Z,20.60
2018-04-08T14:21:06.719Z,20.70
2018-04-08T14:23:34.961Z,21.10
2018-04-08T14:26:03.238Z,20.80
2018-04-08T14:28:32.112Z,20.30
2018-04-08T14:31:00.350Z,19.20
2018-04-08T14:33:28.592Z,19.90
2018-04-08T14:35:56.874Z,20.40
2018-04-08T14:38:25.918Z,20.10
2018-04-08T14:40:54.184Z,20.00
2018-04-08T14:43:22.641Z,19.10
2018-04-08T14:45:50.888Z,20.20
2018-04-08T14:48:19.125Z,20.30
2018-04-08T14:50:47.834Z,19.10
2018-04-08T14:53:16.131Z,19.90
2018-04-08T14:55:44.437Z,20.00
2018-04-08T14:58:12.996Z,19.10
2018-04-08T15:00:41.236Z,19.20
2018-04-08T15:03:09.721Z,19.70
2018-04-08T15:05:38.990Z,19.20
2018-04-08T15:08:07.245Z,19.20
2018-04-08T15:10:35.490Z,19.60
2018-04-08T15:13:04.493Z,19.90
2018-04-08T15:15:32.742Z,20.00
2018-04-08T15:18:01.165Z,19.10
2018-04-08T15:20:29.438Z,20.20
2018-04-08T15:22:57.917Z,18.70
2018-04-08T15:25:26.288Z,19.10
2018-04-08T15:27:54.714Z,19.80
2018-04-08T15:30:24.662Z,19.10
2018-04-08T15:32:53.285Z,19.10
2018-04-08T15:35:22.957Z,19.20
2018-04-08T15:37:51.273Z,18.60
2018-04-08T15:40:20.661Z,19.50
2018-04-08T15:42:48.966Z,19.50
2018-04-08T15:45:19.229Z,19.60
2018-04-08T15:47:47.544Z,19.50
2018-04-08T15:50:15.973Z,19.70
2018-04-08T15:52:44.300Z,19.50
2018-04-08T15:55:12.676Z,18.80
2018-04-08T15:57:41.129Z,19.10
2018-04-08T16:00:09.636Z,18.70
2018-04-08T16:02:37.857Z,19.10
2018-04-08T16:05:08.074Z,19.40
2018-04-08T16:07:37.090Z,19.40
2018-04-08T16:10:05.429Z,19.30
2018-04-08T16:12:33.816Z,19.80
2018-04-08T16:15:04.177Z,20.20
2018-04-08T16:17:32.429Z,20.10
2018-04-08T16:20:02.681Z,19.60
2018-04-08T16:22:32.110Z,19.60
2018-04-08T16:25:01.525Z,19.50
2018-04-08T16:27:29.929Z,20.10
2018-04-08T16:30:00.122Z,20.10
2018-04-08T16:32:29.125Z,20.10
2018-04-08T16:34:57.526Z,20.00
2018-04-08T16:37:26.554Z,20.70
2018-04-08T16:39:54.871Z,20.70
2018-04-08T16:42:23.629Z,20.60
2018-04-08T16:44:51.933Z,20.60
2018-04-08T16:47:20.317Z,21.00
2018-04-08T16:49:48.722Z,21.30
2018-04-08T16:52:17.737Z,21.40
2018-04-08T16:54:46.074Z,21.40
2018-04-08T16:57:14.510Z,21.50
2018-04-08T16:59:42.830Z,21.80
2018-04-08T17:02:11.203Z,21.90
2018-04-08T17:04:40.091Z,22.20
2018-04-08T17:07:08.338Z,22.40
2018-04-08T17:09:36.774Z,22.20
2018-04-08T17:12:05.049Z,22.40
2018-04-08T17:14:34.057Z,23.50
2018-04-08T17:17:03.077Z,24.40
2018-04-08T17:19:31.412Z,23.80
2018-04-08T17:21:59.769Z,24.70
2018-04-08T17:24:28.165Z,25.20
2018-04-08T17:26:56.653Z,24.40
2018-04-08T17:29:27.068Z,24.80
2018-04-08T17:31:55.606Z,24.80
2018-04-08T17:34:25.069Z,25.30
2018-04-08T17:36:53.433Z,25.40
2018-04-08T17:39:21.812Z,26.00
2018-04-08T17:41:50.210Z,26.10
2018-04-08T17:44:19.229Z,26.70
2018-04-08T17:46:48.846Z,27.60
2018-04-08T17:49:17.363Z,27.50
2018-04-08T17:51:45.740Z,27.30
2018-04-08T17:54:16.074Z,28.00
2018-04-08T17:56:44.733Z,27.90
2018-04-08T17:59:13.152Z,28.40
2018-04-08T18:01:41.526Z,29.10
2018-04-08T18:04:09.913Z,28.80
2018-04-08T18:06:38.269Z,29.30
2018-04-08T18:09:06.730Z,30.20
2018-04-08T18:11:35.417Z,30.00
2018-04-08T18:14:03.734Z,30.00
2018-04-08T18:16:32.144Z,30.00
2018-04-08T18:19:01.429Z,29.70
2018-04-08T18:21:30.537Z,29.50
2018-04-08T18:23:59.707Z,29.50
2018-04-08T18:26:28.118Z,29.50
2018-04-08T18:28:58.390Z,29.60
2018-04-08T18:31:26.677Z,29.60
2018-04-08T18:33:55.143Z,29.30
2018-04-08T18:36:23.769Z,29.40
2018-04-08T18:38:52.796Z,29.90
2018-04-08T18:41:22.078Z,29.80
2018-04-08T18:43:52.261Z,30.20
2018-04-08T18:46:20.645Z,30.20
2018-04-08T18:48:50.133Z,30.00
2018-04-08T18:51:19.578Z,31.50
2018-04-08T18:53:48.593Z,31.30
2018-04-08T18:56:17.008Z,31.20
2018-04-08T18:58:45.300Z,31.30
2018-04-08T19:01:13.677Z,31.30
2018-04-08T19:03:42.113Z,31.60
2018-04-08T19:06:16.249Z,31.30
2018-04-08T19:08:44.681Z,31.50
2018-04-08T19:11:13.701Z,32.10
2018-04-08T19:13:42.017Z,32.10
2018-04-08T19:16:10.802Z,32.20
2018-04-08T19:18:39.093Z,32.80
2018-04-08T19:21:07.357Z,32.80
2018-04-08T19:23:37.234Z,32.60
2018-04-08T19:26:05.476Z,32.60
2018-04-08T19:28:34.490Z,33.20
2018-04-08T19:31:02.851Z,32.80
2018-04-08T19:33:31.868Z,33.60
2018-04-08T19:36:00.884Z,33.60
2018-04-08T19:38:29.575Z,33.60
2018-04-08T19:40:59.001Z,33.00
2018-04-08T19:43:31.373Z,33.80
2018-04-08T19:45:59.606Z,33.60
2018-04-08T19:48:27.845Z,34.40
2018-04-08T19:50:56.335Z,34.50
2018-04-08T19:53:25.349Z,36.00
2018-04-08T19:55:54.357Z,36.40
2018-04-08T19:58:23.079Z,36.30
2018-04-08T20:00:51.560Z,37.90
2018-04-08T20:03:19.903Z,38.20
2018-04-08T20:05:53.372Z,36.20
2018-04-08T20:08:22.402Z,35.70
2018-04-08T20:10:50.723Z,35.40
2018-04-08T20:13:19.126Z,35.70
2018-04-08T20:15:50.247Z,37.10
2018-04-08T20:18:18.616Z,37.00
2018-04-08T20:20:47.376Z,37.10
2018-04-08T20:23:15.681Z,36.60
2018-04-08T20:25:43.921Z,37.30
2018-04-08T20:28:12.202Z,37.50
2018-04-08T20:30:40.513Z,37.20
2018-04-08T20:33:08.766Z,36.90
2018-04-08T20:35:37.041Z,36.50
2018-04-08T20:38:05.653Z,37.00
2018-04-08T20:40:34.034Z,36.80
2018-04-08T20:43:02.798Z,36.60
2018-04-08T20:45:31.406Z,37.20
2018-04-08T20:47:59.797Z,38.80
2018-04-08T20:50:28.550Z,38.60
2018-04-08T20:52:56.849Z,37.40
2018-04-08T20:55:25.233Z,36.90
2018-04-08T20:57:53.510Z,37.40
2018-04-08T21:00:21.757Z,38.50
2018-04-08T21:02:49.998Z,38.20
2018-04-08T21:05:18.565Z,39.30
2018-04-08T21:07:46.810Z,39.40
2018-04-08T21:10:15.252Z,38.30
2018-04-08T21:12:44.611Z,38.90
2018-04-08T21:15:12.889Z,38.90
2018-04-08T21:17:41.130Z,39.00
2018-04-08T21:20:10.582Z,39.10
2018-04-08T21:22:39.594Z,40.20
2018-04-08T21:25:07.844Z,40.20
2018-04-08T21:27:36.386Z,40.30
2018-04-08T21:30:05.225Z,41.30
2018-04-08T21:32:33.762Z,41.20
2018-04-08T21:35:02.037Z,41.00
2018-04-08T21:37:30.285Z,39.50
2018-04-08T21:39:59.785Z,41.50
2018-04-08T21:42:28.152Z,43.10
2018-04-08T21:44:57.169Z,40.50
2018-04-08T21:47:25.416Z,40.40
2018-04-08T21:49:54.293Z,41.60
2018-04-08T21:52:23.485Z,42.30
2018-04-08T21:54:51.861Z,42.30
2018-04-08T21:57:20.177Z,41.90
2018-04-08T21:59:48.621Z,44.40
2018-04-08T22:02:16.998Z,42.80
2018-04-08T22:04:45.456Z,41.20
2018-04-08T22:07:14.057Z,42.30
2018-04-08T22:09:42.442Z,41.80
2018-04-08T22:12:11.202Z,43.60
2018-04-08T22:14:39.453Z,41.90
2018-04-08T22:17:07.884Z,41.50
2018-04-08T22:19:36.153Z,41.90
2018-04-08T22:22:06.488Z,41.70
2018-04-08T22:24:34.757Z,41.10
2018-04-08T22:27:03.354Z,41.20
2018-04-08T22:29:31.625Z,41.50
2018-04-08T22:32:00.010Z,41.60
2018-04-08T22:34:28.768Z,41.30
2018-04-08T22:36:57.113Z,42.80
2018-04-08T22:39:26.473Z,42.50
2018-04-08T22:41:55.136Z,42.50
2018-04-08T22:44:23.376Z,42.60
2018-04-08T22:46:51.625Z,44.50
2018-04-08T22:49:19.902Z,42.50
2018-04-08T22:51:48.149Z,42.90
2018-04-08T22:54:16.401Z,44.30
2018-04-08T22:56:44.818Z,43.80
2018-04-08T22:59:13.061Z,46.40
2018-04-08T23:01:41.477Z,44.70
2018-04-08T23:04:09.757Z,43.90
2018-04-08T23:06:38.005Z,44.60
2018-04-08T23:09:06.314Z,45.70
2018-04-08T23:11:34.643Z,44.50
2018-04-08T23:14:03.069Z,46.10
2018-04-08T23:16:31.320Z,45.00
2018-04-08T23:19:01.749Z,44.60
2018-04-08T23:21:30.049Z,44.60
2018-04-08T23:23:58.427Z,44.30
2018-04-08T23:26:26.828Z,44.90
2018-04-08T23:28:55.890Z,44.60
2018-04-08T23:31:24.136Z,44.60
2018-04-08T23:33:52.581Z,44.30
2018-04-08T23:36:21.604Z,47.70
2018-04-08T23:38:49.960Z,47.70
2018-04-08T23:41:19.192Z,48.40
2018-04-08T23:43:47.441Z,48.50
2018-04-08T23:46:15.797Z,49.00
2018-04-08T23:48:44.068Z,46.10
2018-04-08T23:51:12.316Z,45.60
2018-04-08T23:53:40.565Z,46.00
2018-04-08T23:56:08.832Z,46.40
2018-04-08T23:58:37.071Z,47.20
